Relevés horaires Bouveret (Suisse)


Relevés horaires à Bouveret - Lundi 26 Mars 2018
Heure UTC1 Température [°C] Vent [km/h] Hum. [%] Pres.4 [hPa] Visi. [Km] Nébu. [octa] Préc.5 [mm] Cond.
2m. Res. Ros. Dir.2 Vit. Moy. Raf.3
23:00 6.8 5 4.6 NNO 9.3 -- 20.4 86 1019.1(0.6/3h) -- -- -- --
22:00 7.6 6.8 4.4 O 5.6 -- 16.7 80 1018.6(0.8/3h) -- -- -- --
21:00 7.9 7.2 4.4 ONO 5.6 -- 31.5 79 1018.5(1.5/3h) -- -- -- --
20:00 8.3 6.1 3.9 NNO 13.0 -- 31.5 74 1018.2(2.2/3h) -- -- -- --
19:00 8.7 5.7 3.5 ONO 20.4 -- 29.6 70 1017.5(1.7/3h) -- -- -- --
18:00 9.1 5.9 2.9 ONO 24.1 -- 38.9 65 1016.7(1.4/3h) -- -- -- --
17:00 9.7 6 3.3 ONO 33.3 -- 38.9 64 1015.7(0.7/3h) -- -- -- --
16:00 8.8 7.7 3.9 ONO 7.4 -- 11.1 71 1015.7(0.7/3h) -- -- -- --
15:00 8.4 7.3 4.5 ONO 7.4 -- 13.0 76 1015.4(0.3/3h) -- -- -- --
14:00 8.9 8.3 2.7 N 5.6 -- 13.0 65 1015.1(0.1/3h) -- -- -- --
13:00 9.1 8.6 2.9 N 5.6 -- 13.0 65 1015(0.2/3h) -- -- -- --
12:00 8.6 7.1 3.7 NE 9.3 -- 18.5 71 1015(0.5/3h) -- -- -- --
11:00 8.1 8.1 4.1 NE 3.7 -- 14.8 76 1015.1(0.9/3h) -- -- -- --
10:00 7.7 6 4.2 NO 9.3 -- 18.5 78 1015(1.0/3h) -- -- -- --
09:00 8.1 7.4 2.4 N 5.6 -- 14.8 67 1014.6(1.2/3h) -- -- -- --
08:00 8.1 6.5 1.7 O 9.3 -- 14.8 64 1014.2(1.7/3h) -- -- -- --
07:00 7.3 5.5 2.6 O 9.3 -- 13.0 72 1014(1.8/3h) -- -- -- --
06:00 7.0 5.2 3.3 NNO 9.3 -- 18.5 77 1013.5(1.7/3h) -- -- -- --
05:00 7.2 5.9 3.0 O 7.4 -- 9.3 75 1012.6(1.2/3h) -- -- -- --
04:00 7.5 7.5 3.5 O 3.7 -- 7.4 76 1012.1(0.8/3h) -- -- -- --
03:00 7.5 7.5 4.2 ONO 3.7 -- 14.8 80 1011.7(0.6/3h) -- -- -- --
02:00 8.4 8.4 4.2 OSO 1.9 -- 7.4 75 1011.1(0.5/3h) -- -- -- --
01:00 8.5 7 4.9 N 9.3 -- 14.8 78 1011.1(0.8/3h) -- -- -- --
00:00 8.4 7.3 5.5 N 7.4 -- 11.1 82 1010.9(1.0/3h) -- -- -- --

1 Coordinated Universal Time. Actuellement il est 22:00 locale et 20:00 UTC.

2 Le vent souffle depuis la direction indiquée vers la direction oposée.

3 Les rafales max. sont disponible 40 min après l'heure du relevé.

4 Pour les stations d'altitude (plus de 600m) le géopotentiel du niveau le plus proche de la pression obligatoire est indiqué.

5 Les stations disposant d'un diffuseur peuvent indiquer "trace". Cela signifie que des précipitations ont touchés le sol mais que la quantité est inférieure à 0.1 mm.

Copyright

Les données affichées sur cette page sont la propriété exclusive de Météo Suisse.

Récapitulatif de la journée
Température [°C] Vent [km/h] Ensoleillement4 [h] Precipitations totale5 [mm] Pression [Hpa]
Min1 Max.2 Moy.3 Max. Min Max.
6.8 10.0 0 38.9 0 h 0 min 0 1010.9 1019.1

1 Température minimale relevée entre 18:00 UTC la veille et 18:00 UTC le jour donné.

2 Température maximale relevée entre 06:00 UTC le jour donné et 06:00 UTC le lendemain.

3 Vent moyen de la journée basé sur les relevés horaires.

4 Ensoleillement en heures relevé entre 06:00 UTC la veille et 06:00 UTC le jour donné.

5 Précipitations totales tombées entre 06:00 UTC la jour donné et 06:00 UTC le lendemain.

Graphiques horaires